EAG57B EGPH-EGAC
Flight info
| Callsign | EAG57B |
|---|---|
| Flight time | N/A |
| Altitude | 18000 |
| Route | TLA6D TLA DCT TRN P600 BLACA DCT MAGEE DCT |
| Aircraft | AT76/M-SDFGIRY/S |
Departure
| Time | 2026-04-23 17:05 |
|---|---|
| Airport | Edinburgh Airport (EGPH) |
Arrival
| Time | N/A |
|---|---|
| Airport | George Best Belfast City Airport (EGAC) |
| Time | Latitude | Longitude | Altitude | Speed | Heading |
|---|---|---|---|---|---|
| 2026-04-23 16:44 | 55.94901 | -3.36493 | 103 ft | 0 kts | 148° |
| 2026-04-23 16:57 | 55.94912 | -3.36505 | 104 ft | 4 kts | 155° |
| 2026-04-23 16:57 | 55.94938 | -3.36519 | 103 ft | 4 kts | 177° |
| 2026-04-23 16:58 | 55.94963 | -3.36513 | 104 ft | 4 kts | 205° |
| 2026-04-23 16:58 | 55.94985 | -3.36486 | 104 ft | 4 kts | 232° |
| 2026-04-23 16:58 | 55.94991 | -3.36471 | 104 ft | 0 kts | 238° |
| 2026-04-23 17:01 | 55.94975 | -3.36516 | 103 ft | 10 kts | 238° |
| 2026-04-23 17:01 | 55.94927 | -3.36659 | 103 ft | 16 kts | 239° |
| 2026-04-23 17:01 | 55.94898 | -3.36782 | 104 ft | 11 kts | 277° |
| 2026-04-23 17:02 | 55.94922 | -3.36910 | 103 ft | 13 kts | 249° |
| 2026-04-23 17:02 | 55.94867 | -3.37071 | 103 ft | 17 kts | 239° |
| 2026-04-23 17:02 | 55.94800 | -3.37269 | 103 ft | 20 kts | 239° |
| 2026-04-23 17:02 | 55.94723 | -3.37481 | 103 ft | 21 kts | 234° |
| 2026-04-23 17:03 | 55.94647 | -3.37709 | 103 ft | 22 kts | 241° |
| 2026-04-23 17:03 | 55.94570 | -3.37948 | 103 ft | 22 kts | 239° |
| 2026-04-23 17:03 | 55.94490 | -3.38187 | 103 ft | 23 kts | 239° |
| 2026-04-23 17:03 | 55.94406 | -3.38433 | 103 ft | 25 kts | 238° |
| 2026-04-23 17:04 | 55.94302 | -3.38735 | 103 ft | 24 kts | 239° |
| 2026-04-23 17:04 | 55.94305 | -3.38886 | 103 ft | 15 kts | 325° |
| 2026-04-23 17:04 | 55.94403 | -3.38966 | 105 ft | 11 kts | 10° |
| 2026-04-23 17:04 | 55.94468 | -3.38821 | 105 ft | 26 kts | 58° |
| 2026-04-23 17:05 | 55.94641 | -3.38310 | 103 ft | 83 kts | 59° |
| 2026-04-23 17:05 | 55.95042 | -3.37133 | 125 ft | 136 kts | 58° |
| 2026-04-23 17:05 | 55.95582 | -3.35489 | 360 ft | 167 kts | 59° |
| 2026-04-23 17:05 | 55.96213 | -3.33615 | 824 ft | 185 kts | 56° |
| 2026-04-23 17:06 | 55.97162 | -3.31939 | 1285 ft | 199 kts | 38° |
| 2026-04-23 17:06 | 55.98294 | -3.30476 | 1747 ft | 203 kts | 36° |
| 2026-04-23 17:06 | 55.99451 | -3.29129 | 2451 ft | 196 kts | 22° |
| 2026-04-23 17:06 | 56.00748 | -3.28618 | 3142 ft | 188 kts | 9° |
| 2026-04-23 17:07 | 56.02035 | -3.28207 | 3832 ft | 187 kts | 8° |
| 2026-04-23 17:07 | 56.03315 | -3.27852 | 4511 ft | 184 kts | 5° |
| 2026-04-23 17:07 | 56.04497 | -3.28385 | 5208 ft | 175 kts | 316° |
| 2026-04-23 17:07 | 56.04956 | -3.30140 | 5880 ft | 149 kts | 262° |
| 2026-04-23 17:08 | 56.04557 | -3.31693 | 6419 ft | 133 kts | 233° |
| 2026-04-23 17:08 | 56.03829 | -3.32587 | 6810 ft | 132 kts | 179° |
| 2026-04-23 17:08 | 56.03079 | -3.31702 | 6998 ft | 147 kts | 114° |
| 2026-04-23 17:08 | 56.03116 | -3.29798 | 7107 ft | 168 kts | 65° |
| 2026-04-23 17:09 | 56.03872 | -3.28056 | 7234 ft | 190 kts | 36° |
| 2026-04-23 17:09 | 56.05169 | -3.27342 | 7368 ft | 207 kts | 354° |
| 2026-04-23 17:09 | 56.06515 | -3.28324 | 7500 ft | 218 kts | 316° |
| 2026-04-23 17:09 | 56.07274 | -3.30680 | 7621 ft | 226 kts | 279° |
| 2026-04-23 17:10 | 56.07077 | -3.33463 | 7743 ft | 232 kts | 243° |
| 2026-04-23 17:10 | 56.06064 | -3.35706 | 7866 ft | 234 kts | 225° |
| 2026-04-23 17:10 | 56.04945 | -3.37870 | 7985 ft | 240 kts | 229° |
| 2026-04-23 17:10 | 56.03927 | -3.40226 | 8107 ft | 244 kts | 235° |
| 2026-04-23 17:11 | 56.03046 | -3.42854 | 8230 ft | 248 kts | 241° |
| 2026-04-23 17:11 | 56.02345 | -3.45695 | 8356 ft | 251 kts | 246° |
| 2026-04-23 17:11 | 56.01593 | -3.48503 | 8478 ft | 251 kts | 243° |
| 2026-04-23 17:11 | 56.00877 | -3.51365 | 8598 ft | 253 kts | 247° |
| 2026-04-23 17:12 | 56.00319 | -3.54360 | 8725 ft | 255 kts | 253° |
| 2026-04-23 17:12 | 55.99873 | -3.57445 | 8849 ft | 257 kts | 254° |
| 2026-04-23 17:12 | 55.99433 | -3.60553 | 8978 ft | 258 kts | 255° |
| 2026-04-23 17:12 | 55.99011 | -3.63669 | 9107 ft | 259 kts | 255° |
| 2026-04-23 17:13 | 55.98583 | -3.66800 | 9225 ft | 259 kts | 255° |
| 2026-04-23 17:13 | 55.98148 | -3.69927 | 9343 ft | 260 kts | 254° |
| 2026-04-23 17:13 | 55.97696 | -3.73048 | 9475 ft | 260 kts | 254° |
| 2026-04-23 17:13 | 55.97244 | -3.76129 | 9588 ft | 260 kts | 253° |
| 2026-04-23 17:14 | 55.96776 | -3.79288 | 9723 ft | 260 kts | 253° |
| 2026-04-23 17:14 | 55.96316 | -3.82408 | 9851 ft | 260 kts | 253° |
| 2026-04-23 17:14 | 55.95850 | -3.85529 | 9976 ft | 260 kts | 253° |
| 2026-04-23 17:14 | 55.95385 | -3.88662 | 10108 ft | 261 kts | 253° |
| 2026-04-23 17:15 | 55.94923 | -3.91786 | 10239 ft | 261 kts | 253° |
| 2026-04-23 17:15 | 55.94461 | -3.94872 | 10361 ft | 261 kts | 253° |
| 2026-04-23 17:15 | 55.93968 | -3.97991 | 10487 ft | 261 kts | 249° |
| 2026-04-23 17:15 | 55.93180 | -4.00893 | 10612 ft | 260 kts | 236° |
| 2026-04-23 17:16 | 55.92057 | -4.03405 | 10724 ft | 259 kts | 225° |
| 2026-04-23 17:16 | 55.90729 | -4.05565 | 10844 ft | 258 kts | 219° |
| 2026-04-23 17:16 | 55.89300 | -4.07503 | 10961 ft | 258 kts | 215° |
| 2026-04-23 17:16 | 55.87820 | -4.09332 | 11083 ft | 259 kts | 214° |
| 2026-04-23 17:17 | 55.86329 | -4.11122 | 11204 ft | 259 kts | 214° |
| 2026-04-23 17:17 | 55.84834 | -4.12924 | 11329 ft | 260 kts | 214° |
| 2026-04-23 17:17 | 55.83843 | -4.14123 | 11406 ft | 260 kts | 214° |
| 2026-04-23 17:17 | 55.81843 | -4.16548 | 11568 ft | 260 kts | 214° |
| 2026-04-23 17:18 | 55.78514 | -4.18359 | 11810 ft | 262 kts | 167° |
| 2026-04-23 17:18 | 55.76963 | -4.16768 | 11942 ft | 266 kts | 136° |
| 2026-04-23 17:18 | 55.76041 | -4.13931 | 12064 ft | 265 kts | 114° |
| 2026-04-23 17:19 | 55.75027 | -4.11310 | 12187 ft | 259 kts | 143° |
| 2026-04-23 17:19 | 55.73385 | -4.10136 | 12316 ft | 258 kts | 176° |
| 2026-04-23 17:19 | 55.71649 | -4.10750 | 12443 ft | 258 kts | 208° |
| 2026-04-23 17:19 | 55.70370 | -4.12945 | 12572 ft | 261 kts | 239° |
| 2026-04-23 17:20 | 55.69695 | -4.15928 | 12703 ft | 262 kts | 248° |
| 2026-04-23 17:20 | 55.68159 | -4.21820 | 12959 ft | 265 kts | 239° |
| 2026-04-23 17:21 | 55.65938 | -4.27020 | 13212 ft | 266 kts | 226° |
| 2026-04-23 17:21 | 55.65275 | -4.28176 | 13277 ft | 266 kts | 222° |
| 2026-04-23 17:24 | 55.64908 | -4.28749 | 13310 ft | 267 kts | 220° |
| 2026-04-23 17:25 | 55.64853 | -4.28831 | 13188 ft | 267 kts | 219° |
| 2026-04-23 17:26 | 55.61795 | -4.32561 | 13573 ft | 267 kts | 212° |
| 2026-04-23 17:26 | 55.58644 | -4.36030 | 13841 ft | 267 kts | 212° |
| 2026-04-23 17:27 | 55.56170 | -4.38850 | 14050 ft | 267 kts | 213° |
| 2026-04-23 17:27 | 55.55442 | -4.39692 | 14124 ft | 267 kts | 213° |
| 2026-04-23 17:27 | 55.55264 | -4.39899 | 14133 ft | 267 kts | 213° |
| 2026-04-23 17:28 | 55.55180 | -4.39996 | 14140 ft | 267 kts | 213° |
| 2026-04-23 17:28 | 55.54181 | -4.41152 | 14224 ft | 267 kts | 213° |
| 2026-04-23 17:28 | 55.53869 | -4.41514 | 14244 ft | 267 kts | 213° |
| 2026-04-23 17:28 | 55.52316 | -4.43306 | 14364 ft | 267 kts | 213° |
| 2026-04-23 17:29 | 55.50762 | -4.45103 | 14483 ft | 267 kts | 213° |
| 2026-04-23 17:29 | 55.49204 | -4.46909 | 14604 ft | 268 kts | 212° |
| 2026-04-23 17:29 | 55.46032 | -4.50556 | 14220 ft | 272 kts | 213° |
| 2026-04-23 17:30 | 55.45026 | -4.51745 | 13833 ft | 254 kts | 213° |
| 2026-04-23 17:30 | 55.41986 | -4.55323 | 13035 ft | 197 kts | 212° |
| 2026-04-23 17:30 | 55.40886 | -4.56583 | 12801 ft | 183 kts | 212° |
| 2026-04-23 17:31 | 55.39833 | -4.57790 | 12567 ft | 179 kts | 212° |
| 2026-04-23 17:31 | 55.38804 | -4.58975 | 12338 ft | 175 kts | 212° |
| 2026-04-23 17:31 | 55.37793 | -4.60131 | 12113 ft | 172 kts | 212° |
| 2026-04-23 17:31 | 55.36827 | -4.61240 | 11894 ft | 169 kts | 212° |
| 2026-04-23 17:32 | 55.35850 | -4.62359 | 11672 ft | 166 kts | 212° |
| 2026-04-23 17:32 | 55.34898 | -4.63445 | 11452 ft | 164 kts | 212° |
| 2026-04-23 17:32 | 55.33933 | -4.64549 | 11245 ft | 162 kts | 212° |
| 2026-04-23 17:32 | 55.33004 | -4.65610 | 11025 ft | 161 kts | 212° |
| 2026-04-23 17:33 | 55.32056 | -4.66692 | 10803 ft | 159 kts | 211° |
| 2026-04-23 17:33 | 55.31142 | -4.67733 | 10590 ft | 158 kts | 212° |
| 2026-04-23 17:33 | 55.30223 | -4.68783 | 10376 ft | 157 kts | 212° |
| 2026-04-23 17:33 | 55.29310 | -4.69820 | 10150 ft | 156 kts | 212° |
| 2026-04-23 17:34 | 55.28404 | -4.70856 | 9909 ft | 155 kts | 212° |
| 2026-04-23 17:34 | 55.27498 | -4.71886 | 9673 ft | 155 kts | 212° |
| 2026-04-23 17:34 | 55.25702 | -4.73930 | 9186 ft | 153 kts | 212° |
| 2026-04-23 17:35 | 55.24815 | -4.74941 | 8960 ft | 152 kts | 212° |
| 2026-04-23 17:35 | 55.23334 | -4.76621 | 8582 ft | 151 kts | 212° |
| 2026-04-23 17:35 | 55.22168 | -4.77943 | 8272 ft | 151 kts | 212° |
| 2026-04-23 17:36 | 55.21291 | -4.78940 | 8063 ft | 150 kts | 212° |
| 2026-04-23 17:36 | 55.20410 | -4.79934 | 7836 ft | 150 kts | 212° |
| 2026-04-23 17:36 | 55.19531 | -4.80932 | 7609 ft | 151 kts | 212° |
| 2026-04-23 17:36 | 55.18651 | -4.81929 | 7398 ft | 151 kts | 212° |
| 2026-04-23 17:37 | 55.17768 | -4.82930 | 7176 ft | 151 kts | 212° |
| 2026-04-23 17:37 | 55.16882 | -4.83927 | 6965 ft | 151 kts | 212° |
| 2026-04-23 17:37 | 55.15123 | -4.85921 | 6513 ft | 150 kts | 211° |
| 2026-04-23 17:38 | 55.14243 | -4.86909 | 6287 ft | 151 kts | 211° |
| 2026-04-23 17:38 | 55.13360 | -4.87907 | 6044 ft | 151 kts | 211° |
| 2026-04-23 17:38 | 55.12484 | -4.88898 | 5813 ft | 150 kts | 211° |
| 2026-04-23 17:38 | 55.11611 | -4.89882 | 5592 ft | 149 kts | 211° |
| 2026-04-23 17:39 | 55.10739 | -4.90869 | 5378 ft | 149 kts | 211° |
| 2026-04-23 17:39 | 55.09811 | -4.91891 | 5142 ft | 167 kts | 210° |
| 2026-04-23 17:39 | 55.08777 | -4.93007 | 4932 ft | 181 kts | 210° |
| 2026-04-23 17:39 | 55.07678 | -4.94216 | 4706 ft | 191 kts | 210° |
| 2026-04-23 17:40 | 55.06541 | -4.95483 | 4555 ft | 195 kts | 210° |
| 2026-04-23 17:40 | 55.05786 | -4.96326 | 4501 ft | 195 kts | 210° |
| 2026-04-23 17:40 | 55.04656 | -4.97590 | 4446 ft | 190 kts | 210° |
| 2026-04-23 17:40 | 55.03553 | -4.98828 | 4442 ft | 187 kts | 210° |
| 2026-04-23 17:41 | 55.02467 | -5.00049 | 4426 ft | 185 kts | 210° |
| 2026-04-23 17:41 | 55.00332 | -5.02437 | 4423 ft | 181 kts | 210° |
| 2026-04-23 17:41 | 54.99276 | -5.03616 | 4433 ft | 180 kts | 210° |
| 2026-04-23 17:42 | 54.97171 | -5.05973 | 4417 ft | 179 kts | 210° |
| 2026-04-23 17:42 | 54.96123 | -5.07141 | 4418 ft | 179 kts | 210° |
| 2026-04-23 17:42 | 54.95076 | -5.08312 | 4419 ft | 178 kts | 210° |
| 2026-04-23 17:43 | 54.94029 | -5.09480 | 4422 ft | 179 kts | 210° |
| 2026-04-23 17:43 | 54.92978 | -5.10654 | 4420 ft | 180 kts | 210° |
| 2026-04-23 17:43 | 54.91923 | -5.11831 | 4408 ft | 179 kts | 211° |
| 2026-04-23 17:43 | 54.91435 | -5.12553 | 4402 ft | 179 kts | 228° |
| 2026-04-23 18:03 | 54.90864 | -5.14333 | 4360 ft | 181 kts | 241° |
| 2026-04-23 18:03 | 54.90306 | -5.16285 | 4387 ft | 180 kts | 238° |
| 2026-04-23 18:03 | 54.89691 | -5.18175 | 4405 ft | 180 kts | 235° |
| 2026-04-23 18:04 | 54.89015 | -5.19993 | 4406 ft | 177 kts | 229° |
| 2026-04-23 18:04 | 54.88022 | -5.21047 | 4415 ft | 166 kts | 190° |
| 2026-04-23 18:04 | 54.86994 | -5.21822 | 4411 ft | 167 kts | 225° |
| 2026-04-23 18:04 | 54.86613 | -5.23747 | 4422 ft | 173 kts | 260° |
| 2026-04-23 18:05 | 54.86465 | -5.25841 | 4420 ft | 176 kts | 258° |
| 2026-04-23 18:05 | 54.86272 | -5.27956 | 4423 ft | 178 kts | 255° |
| 2026-04-23 18:05 | 54.86005 | -5.30062 | 4424 ft | 179 kts | 252° |
| 2026-04-23 18:05 | 54.85653 | -5.32140 | 4424 ft | 180 kts | 248° |
| 2026-04-23 18:06 | 54.85008 | -5.33881 | 4423 ft | 169 kts | 213° |
| 2026-04-23 18:06 | 54.84043 | -5.35017 | 4419 ft | 168 kts | 212° |
| 2026-04-23 18:06 | 54.83102 | -5.36209 | 4414 ft | 171 kts | 214° |
| 2026-04-23 18:06 | 54.82175 | -5.37510 | 4418 ft | 172 kts | 217° |
| 2026-04-23 18:07 | 54.81274 | -5.38905 | 4419 ft | 174 kts | 220° |
| 2026-04-23 18:07 | 54.80396 | -5.40365 | 4423 ft | 176 kts | 221° |
| 2026-04-23 18:07 | 54.79518 | -5.41850 | 4415 ft | 177 kts | 221° |
| 2026-04-23 18:07 | 54.78641 | -5.43343 | 4424 ft | 177 kts | 221° |
| 2026-04-23 18:08 | 54.78052 | -5.44358 | 4421 ft | 177 kts | 221° |
| 2026-04-23 18:08 | 54.76912 | -5.46359 | 4424 ft | 176 kts | 220° |
| 2026-04-23 18:08 | 54.76042 | -5.47848 | 4425 ft | 176 kts | 221° |
| 2026-04-23 18:08 | 54.75168 | -5.49337 | 4417 ft | 176 kts | 220° |
| 2026-04-23 18:09 | 54.74292 | -5.50820 | 4417 ft | 175 kts | 220° |
| 2026-04-23 18:09 | 54.73283 | -5.51810 | 4420 ft | 166 kts | 182° |
| 2026-04-23 18:09 | 54.72162 | -5.51561 | 4417 ft | 162 kts | 171° |
| 2026-04-23 18:09 | 54.71036 | -5.51310 | 4415 ft | 164 kts | 174° |
| 2026-04-23 18:10 | 54.69891 | -5.51165 | 4420 ft | 166 kts | 176° |
| 2026-04-23 18:10 | 54.68733 | -5.51133 | 4420 ft | 167 kts | 180° |
| 2026-04-23 18:10 | 54.67571 | -5.51213 | 4417 ft | 167 kts | 182° |
| 2026-04-23 18:10 | 54.66410 | -5.51368 | 4415 ft | 168 kts | 184° |
| 2026-04-23 18:11 | 54.65247 | -5.51529 | 4416 ft | 168 kts | 184° |
| 2026-04-23 18:11 | 54.64099 | -5.51700 | 4421 ft | 168 kts | 184° |
| 2026-04-23 18:11 | 54.62929 | -5.51884 | 4418 ft | 169 kts | 184° |
| 2026-04-23 18:11 | 54.61757 | -5.52075 | 4421 ft | 170 kts | 184° |
| 2026-04-23 18:12 | 54.60579 | -5.52262 | 4419 ft | 170 kts | 184° |
| 2026-04-23 18:12 | 54.59398 | -5.52440 | 4416 ft | 170 kts | 183° |
| 2026-04-23 18:12 | 54.58212 | -5.52613 | 4348 ft | 174 kts | 183° |
| 2026-04-23 18:12 | 54.56954 | -5.52784 | 4061 ft | 188 kts | 183° |
| 2026-04-23 18:13 | 54.55616 | -5.52982 | 3770 ft | 198 kts | 183° |
| 2026-04-23 18:13 | 54.54237 | -5.53174 | 3567 ft | 199 kts | 182° |
| 2026-04-23 18:13 | 54.52874 | -5.53355 | 3488 ft | 194 kts | 183° |
| 2026-04-23 18:13 | 54.51547 | -5.53539 | 3443 ft | 189 kts | 183° |
| 2026-04-23 18:14 | 54.50307 | -5.54034 | 3427 ft | 185 kts | 210° |
| 2026-04-23 18:14 | 54.49583 | -5.55849 | 3415 ft | 192 kts | 253° |
| 2026-04-23 18:14 | 54.49403 | -5.58107 | 3406 ft | 190 kts | 258° |
| 2026-04-23 18:14 | 54.49267 | -5.60358 | 3413 ft | 189 kts | 260° |
| 2026-04-23 18:15 | 54.49148 | -5.62607 | 3405 ft | 189 kts | 261° |
| 2026-04-23 18:15 | 54.49041 | -5.64856 | 3404 ft | 189 kts | 261° |
| 2026-04-23 18:15 | 54.48932 | -5.67104 | 3411 ft | 189 kts | 260° |
| 2026-04-23 18:15 | 54.48816 | -5.69359 | 3415 ft | 190 kts | 260° |
| 2026-04-23 18:16 | 54.48697 | -5.71616 | 3399 ft | 189 kts | 260° |
| 2026-04-23 18:16 | 54.48581 | -5.73860 | 3403 ft | 188 kts | 260° |
| 2026-04-23 18:16 | 54.48461 | -5.76101 | 3407 ft | 188 kts | 260° |
| 2026-04-23 18:17 | 54.48200 | -5.80580 | 3390 ft | 187 kts | 259° |
| 2026-04-23 18:17 | 54.48071 | -5.82773 | 3401 ft | 186 kts | 260° |
| 2026-04-23 18:17 | 54.47921 | -5.84988 | 3420 ft | 186 kts | 258° |
| 2026-04-23 18:17 | 54.47750 | -5.87198 | 3423 ft | 186 kts | 257° |
| 2026-04-23 18:18 | 54.47585 | -5.89356 | 3426 ft | 173 kts | 257° |
| 2026-04-23 18:18 | 54.47429 | -5.91292 | 3419 ft | 154 kts | 256° |
| 2026-04-23 18:18 | 54.47266 | -5.93020 | 3378 ft | 137 kts | 255° |
| 2026-04-23 18:18 | 54.47117 | -5.94649 | 2993 ft | 145 kts | 259° |
| 2026-04-23 18:19 | 54.47314 | -5.96389 | 2636 ft | 154 kts | 289° |
| 2026-04-23 18:19 | 54.47786 | -5.98034 | 2449 ft | 150 kts | 303° |
| 2026-04-23 18:19 | 54.48498 | -5.99335 | 2166 ft | 152 kts | 323° |
| 2026-04-23 18:19 | 54.49409 | -6.00203 | 1933 ft | 149 kts | 341° |
| 2026-04-23 18:20 | 54.50337 | -6.00659 | 1926 ft | 121 kts | 356° |
| 2026-04-23 18:20 | 54.51117 | -6.00651 | 1784 ft | 108 kts | 19° |
| 2026-04-23 18:20 | 54.51829 | -6.00208 | 1478 ft | 110 kts | 40° |
| 2026-04-23 18:20 | 54.52397 | -5.99458 | 1287 ft | 103 kts | 42° |
| 2026-04-23 18:21 | 54.52988 | -5.98849 | 1149 ft | 94 kts | 36° |
| 2026-04-23 18:21 | 54.53551 | -5.98240 | 862 ft | 97 kts | 46° |
| 2026-04-23 18:21 | 54.54093 | -5.97559 | 658 ft | 96 kts | 45° |
| 2026-04-23 18:21 | 54.54545 | -5.96999 | 514 ft | 90 kts | 43° |
| 2026-04-23 18:22 | 54.54741 | -5.96734 | 770 ft | 94 kts | 45° |